• Join FlightAware (Why Join?)
  • Login
  • US Flag GB Flag 
12:20 EST


 

Airport Tracker/Info


-or-


 

Live Flight TrackerFlight Track Log ✈ SWA407 ✈ 04-Apr-2013 ✈ KBUF - KBWI

Flight Track Log - Related Links

Times and Time Zones

All times are in EDT time to prevent confusion due to time zone crossing. See the SWA407 flight status page for this flight to view local times or setup timezone preferences in your user account.

Time Position Orientation Groundspeed Altitude Reporting Facility
EDT Latitude Longitude Course Direction KTS MPH feet Rate Location/Type
19:11 42.9333 -78.7333 174° South 146 168 2,100  Level Buffalo TRACON
19:12 42.9167 -78.7667 236° Southwest 164 189 3,400 2,820 Climbing Buffalo TRACON
19:13 42.8189 -78.7547 175° South 247 284 8,000 3,240 Climbing Cleveland Center
19:14 42.7456 -78.7397 171° South 263 303 11,400 3,180 Climbing Cleveland Center
19:15 42.6558 -78.7228 172° South 292 336 14,400 1,800 Climbing Cleveland Center
19:16 42.5575 -78.7031 172° South 334 384 15,000 600 Climbing Cleveland Center
19:17 42.3364 -78.6457 174° South  Level FlightAware Approximate
19:17 42.4614 -78.6861 173° South 352 405 15,700  Level Cleveland Center
19:18 42.3736 -78.6692 172° South 357 411 19,100 3,420 Climbing Cleveland Center
19:19 42.2708 -78.6469 171° South 363 418 22,600 1,920 Climbing Cleveland Center
19:20 42.1903 -78.5597 141° Southeast 363 418 23,000 180 Climbing Cleveland Center
19:21 42.1008 -78.4533 139° Southeast 368 423 23,000  Level Cleveland Center
19:22 42.0239 -78.3553 137° Southeast 374 430 23,000  Level Cleveland Center
19:23 41.9428 -78.2606 139° Southeast 379 436 23,000  Level Cleveland Center
19:25 41.8197 -78.1078 137° Southeast 396 456 23,000  Level New York Center
19:26 41.7403 -78.0100 137° Southeast 396 456 23,000  Level New York Center
19:27 41.6586 -77.9122 138° Southeast 396 456 23,000  Level New York Center
19:28 41.5792 -77.8150 138° Southeast 391 450 23,000  Level New York Center
19:29 41.4992 -77.7208 139° Southeast 391 450 23,000  Level New York Center
19:30 41.4194 -77.6239 138° Southeast 391 450 23,000 -360 Level New York Center
19:31 41.3394 -77.5300 139° Southeast 391 450 22,300 -900 Descending New York Center
19:32 41.2633 -77.4369 137° Southeast 391 450 21,300 -1,020 Descending New York Center
19:33 41.1847 -77.3519 141° Southeast 386 444 20,300 -1,020 Descending New York Center
19:34 41.1125 -77.2650 138° Southeast 372 428 19,300 -1,020 Descending New York Center
19:35 41.0378 -77.1808 140° Southeast 361 415 18,300 -960 Descending New York Center
19:36 40.9656 -77.0944 138° Southeast 361 415 17,500 -960 Descending New York Center
19:37 40.8775 -77.0614 164° South 328 377 16,500 -1,020 Descending New York Center
19:38 40.7869 -77.0394 170° South 328 377 15,500 -780 Descending New York Center
19:39 40.6983 -77.0203 171° South 328 377 15,000 -240 Descending New York Center
19:40 40.6203 -77.0022 170° South 333 383 15,100  Climbing New York Center
19:41 40.5214 -76.9797 170° South 328 377 15,100 -60 Level New York Center
19:42 40.4408 -76.9617 170° South 328 377 15,000 -720 Descending New York Center
19:44 40.2167 -76.9000 168° South 311 358 12,700 -960 Descending Potomac TRACON
19:45 40.1333 -76.8833 171° South 313 360 11,700 -1,020 Descending Potomac TRACON
19:46 40.0500 -76.8667 171° South 295 339 10,700 -900 Descending Potomac TRACON
19:47 39.9667 -76.8500 171° South 270 311 10,000 -360 Descending Potomac TRACON
19:48 39.9000 -76.8333 169° South 260 299 10,000 -360 Level Potomac TRACON
19:49 39.8333 -76.8167 169° South 264 304 9,300 -1,020 Descending Potomac TRACON
19:50 39.7667 -76.8000 169° South 264 304 8,100 -1,380 Descending Potomac TRACON
19:51 39.6833 -76.8000 180° South 255 293 6,600 -1,380 Descending Potomac TRACON
19:52 39.6167 -76.7833 169° South 248 285 5,300 -1,320 Descending Potomac TRACON
19:53 39.5500 -76.7833 180° South 237 273 4,100 -720 Descending Potomac TRACON
19:54 39.5000 -76.8000 194° South 222 255 4,000 -60 Descending Potomac TRACON
19:55 39.4333 -76.8000 180° South 223 257 4,000  Level Potomac TRACON
19:56 39.3833 -76.8167 194° South 223 257 4,000  Level Potomac TRACON
19:57 39.3167 -76.8333 191° South 226 260 4,000 -300 Level Potomac TRACON
19:58 39.2500 -76.8333 180° South 207 238 3,500 -720 Descending Potomac TRACON
19:59 39.2000 -76.8333 180° South 197 227 2,500 -840 Descending Potomac TRACON
20:00 39.1667 -76.7833 131° Southeast 159 183 1,800 -780 Descending Potomac TRACON
20:01 39.1833 -76.7333 67° East 141 162 1,000 -840 Descending Potomac TRACON
20:03 39.1667 -76.6667 90° East  Level FlightAware Approximate
20:10 39.1754 -76.6683 90° East  Level Estimated
20:11 39.1754 -76.6683 90° East  Level Estimated
20:12 39.1754 -76.6683 90° East  Level Estimated